This is the latest recevied weather packets stored in our database for station/object DG9VH-13. If no packets are shown the sender has not sent any weather packets the latest 10 day(s).
| Time | Temp. | Humidity | Pressure | Rain* | Wind** | Luminosity | Snow |
|---|---|---|---|---|---|---|---|
| 1777618207 | 12.22° C | 37% | 1008.2 hPa | - | - | - | - |
| 1777617601 | 12.22° C | 37% | 1008.4 hPa | - | - | - | - |
| 1777617001 | 12.22° C | 37% | 1008.5 hPa | - | - | - | - |
| 1777616404 | 11.67° C | 38% | 1008.4 hPa | - | - | - | - |
| 1777615801 | 11.67° C | 38% | 1008.5 hPa | - | - | - | - |
| 1777615204 | 11.67° C | 38% | 1008.4 hPa | - | - | - | - |
| 1777614605 | 11.67° C | 39% | 1008.4 hPa | - | - | - | - |
| 1777614004 | 11.67° C | 38% | 1008.3 hPa | - | - | - | - |
| 1777613400 | 11.67° C | 38% | 1008.3 hPa | - | - | - | - |
| 1777612203 | 11.11° C | 38% | 1008.1 hPa | - | - | - | - |
| 1777611001 | 10.56° C | 40% | 1007.9 hPa | - | - | - | - |
| 1777610401 | 10.56° C | 39% | 1007.9 hPa | - | - | - | - |
| 1777609801 | 10.56° C | 39% | 1008 hPa | - | - | - | - |
| 1777609201 | 10° C | 41% | 1008 hPa | - | - | - | - |
| 1777608600 | 10° C | 44% | 1008.1 hPa | - | - | - | - |
| 1777608004 | 10° C | 45% | 1008.1 hPa | - | - | - | - |
| 1777607404 | 10° C | 45% | 1008.1 hPa | - | - | - | - |
| 1777606804 | 10.56° C | 45% | 1008.1 hPa | - | - | - | - |
| 1777606204 | 10.56° C | 43% | 1008.3 hPa | - | - | - | - |
| 1777605604 | 10.56° C | 45% | 1008.1 hPa | - | - | - | - |
| 1777605001 | 10.56° C | 42% | 1008.1 hPa | - | - | - | - |
| 1777604404 | 10.56° C | 41% | 1008 hPa | - | - | - | - |
| 1777603804 | 11.11° C | 40% | 1008.1 hPa | - | - | - | - |
| 1777602004 | 12.22° C | 37% | 1008 hPa | - | - | - | - |
| 1777601404 | 12.22° C | 35% | 1008.1 hPa | - | - | - | - |
* Rain since midnight (hover to see other rain measurements)
** Current wind speed in m/s (hover to see current wind gust speed)